Time;durP1;ratioP1;P1;durP2;ratioP2;P2;SDS_P1;SDS_P2;PMS_P1;PMS_P2;Temp;Humidity;BMP_temperature;BMP_pressure;BME280_temperature;BME280_humidity;BME280_pressure;Samples;Min_cycle;Max_cycle;Signal;HPM_P1;HPM_P2
2022/07/15 03:51:32;;;;;;;1.05;0.93;;;;;;;24.29;42.94;100083.09;6049593;27;20134;-83
2022/07/15 03:54:35;;;;;;;0.95;0.95;;;;;;;24.21;44.11;100076.22;5380062;33;34695;-84
2022/07/15 03:57:38;;;;;;;0.70;0.70;;;;;;;23.96;45.86;100105.37;5377151;33;35078;-83
2022/07/15 04:00:42;;;;;;;0.82;0.73;;;;;;;23.81;45.87;100110.00;5377173;33;34094;-83
2022/07/15 04:03:45;;;;;;;1.00;0.95;;;;;;;23.77;46.60;100121.56;5361764;33;33992;-83
2022/07/15 04:06:49;;;;;;;1.15;0.90;;;;;;;23.55;50.43;100126.44;5364021;33;32661;-83
2022/07/15 04:09:52;;;;;;;1.83;0.90;;;;;;;23.26;51.97;100132.34;5366963;33;33648;-84
2022/07/15 04:12:55;;;;;;;1.08;1.02;;;;;;;23.17;51.75;100122.16;5380047;33;34378;-83
2022/07/15 04:15:58;;;;;;;1.17;0.85;;;;;;;23.10;53.05;100130.62;5349398;33;32615;-83
2022/07/15 04:19:02;;;;;;;0.85;0.85;;;;;;;23.13;52.53;100130.09;5373155;33;34092;-83
2022/07/15 04:22:06;;;;;;;0.90;0.90;;;;;;;23.26;51.63;100126.88;5379829;33;33907;-83
2022/07/15 04:25:13;;;;;;;1.02;1.02;;;;;;;23.39;49.72;100133.78;5379798;33;34817;-83
2022/07/15 04:28:21;;;;;;;1.52;1.10;;;;;;;23.46;49.32;100126.13;5377985;33;34586;-83
2022/07/15 04:31:25;;;;;;;1.25;1.00;;;;;;;23.54;48.27;100142.06;5370623;33;33666;-83
2022/07/15 04:34:29;;;;;;;0.93;0.93;;;;;;;23.65;47.83;100150.34;5374176;33;34575;-83
2022/07/15 04:37:32;;;;;;;3.28;1.12;;;;;;;23.64;47.60;100140.47;5354445;33;32233;-83
2022/07/15 04:40:35;;;;;;;1.00;1.00;;;;;;;23.74;47.57;100149.59;5347897;33;32798;-83
2022/07/15 04:43:46;;;;;;;1.45;1.25;;;;;;;23.74;47.93;100163.31;5361276;33;34202;-83
2022/07/15 04:46:49;;;;;;;1.25;1.15;;;;;;;23.59;48.70;100188.00;5361421;33;34156;-82
2022/07/15 04:53:21;;;;;;;1.48;1.20;;;;;;;23.43;50.09;100181.62;5361176;33;33795;-83
2022/07/15 04:56:23;;;;;;;1.35;1.25;;;;;;;22.91;55.92;100190.63;5360721;33;34328;-82
2022/07/15 04:59:33;;;;;;;5.43;1.60;;;;;;;21.73;63.16;100196.87;5359676;33;34103;-86
2022/07/15 05:02:37;;;;;;;1.27;1.27;;;;;;;20.94;68.47;100222.66;5347432;33;33082;-87
2022/07/15 05:05:41;;;;;;;1.37;1.33;;;;;;;20.33;71.77;100205.19;5347449;33;33556;-84
2022/07/15 05:08:45;;;;;;;1.80;1.70;;;;;;;20.03;75.50;100209.00;5361476;33;34041;-82
2022/07/15 05:11:48;;;;;;;1.58;1.48;;;;;;;20.04;74.43;100212.59;5347764;33;34488;-82
2022/07/15 05:14:54;;;;;;;1.87;1.77;;;;;;;20.20;74.26;100197.28;5346965;33;32921;-83
2022/07/15 05:17:57;;;;;;;3.37;1.87;;;;;;;20.29;73.83;100207.56;5360561;33;33895;-83
2022/07/15 05:21:01;;;;;;;2.37;1.70;;;;;;;20.33;72.73;100213.37;5360668;33;33634;-83
2022/07/15 05:24:05;;;;;;;1.75;1.65;;;;;;;20.33;73.70;100200.53;5347300;33;32592;-83
2022/07/15 05:27:28;;;;;;;4.87;2.03;;;;;;;20.33;72.20;100205.19;5360724;33;34566;-84
2022/07/15 05:30:31;;;;;;;3.78;1.95;;;;;;;20.32;73.83;100211.72;5360658;33;33868;-84
2022/07/15 05:33:34;;;;;;;3.97;1.50;;;;;;;20.31;74.43;100212.78;5360452;33;33725;-84
2022/07/15 05:36:39;;;;;;;1.67;1.45;;;;;;;20.31;73.51;100223.72;5349286;33;32594;-84
2022/07/15 05:39:53;;;;;;;1.83;1.70;;;;;;;20.28;73.17;100226.97;5368310;33;34359;-83
2022/07/15 05:42:58;;;;;;;1.80;1.70;;;;;;;20.23;73.71;100226.84;5364163;33;34079;-84
2022/07/15 05:46:02;;;;;;;1.70;1.60;;;;;;;20.24;75.17;100243.03;5361469;33;34605;-83
2022/07/15 05:49:05;;;;;;;1.77;1.67;;;;;;;20.25;74.54;100250.16;5362699;33;34633;-83
2022/07/15 05:52:09;;;;;;;2.30;2.03;;;;;;;20.10;74.99;100245.22;5360613;33;34059;-84
2022/07/15 05:55:12;;;;;;;2.05;1.87;;;;;;;20.16;77.98;100237.94;5347269;33;32268;-84
2022/07/15 05:58:15;;;;;;;1.95;1.85;;;;;;;20.13;75.86;100255.66;5363098;33;34385;-84
2022/07/15 06:01:18;;;;;;;2.25;2.05;;;;;;;20.17;75.66;100272.41;5368721;33;34820;-84
2022/07/15 06:04:21;;;;;;;1.60;1.50;;;;;;;20.12;76.13;100273.16;5357059;33;33015;-84
2022/07/15 06:07:24;;;;;;;2.95;2.03;;;;;;;20.06;76.79;100290.50;5350702;33;33736;-84
2022/07/15 06:10:27;;;;;;;4.65;2.08;;;;;;;20.00;76.78;100318.78;5364288;33;32999;-85
2022/07/15 06:13:31;;;;;;;2.47;2.00;;;;;;;20.01;77.40;100328.69;5379473;33;34039;-85
2022/07/15 06:16:35;;;;;;;2.08;1.85;;;;;;;19.98;77.07;100328.31;5378417;33;34945;-85
2022/07/15 06:19:39;;;;;;;3.20;2.35;;;;;;;19.95;77.91;100329.63;5373519;33;34802;-84
2022/07/15 06:22:42;;;;;;;3.50;2.00;;;;;;;19.87;77.67;100327.28;5349499;33;32664;-84
2022/07/15 06:25:47;;;;;;;2.90;1.90;;;;;;;19.77;78.21;100310.66;5358717;33;34375;-84
2022/07/15 06:28:50;;;;;;;2.10;1.85;;;;;;;19.72;79.69;100299.62;5361696;33;33904;-84
2022/07/15 06:31:55;;;;;;;4.35;1.98;;;;;;;19.65;79.08;100300.56;5358711;33;34018;-82
2022/07/15 06:34:58;;;;;;;1.92;1.80;;;;;;;19.83;78.54;100306.94;5375608;33;33848;-83
2022/07/15 06:38:01;;;;;;;2.15;1.80;;;;;;;19.80;78.92;100319.22;5377456;33;34362;-83
2022/07/15 06:41:05;;;;;;;2.08;1.90;;;;;;;19.78;79.04;100285.00;5355355;33;32713;-83
2022/07/15 06:44:08;;;;;;;2.83;2.62;;;;;;;19.72;79.83;100283.25;5377576;33;33922;-87
2022/07/15 06:47:16;;;;;;;2.60;2.40;;;;;;;19.81;79.15;100295.47;5363592;33;32837;-86
2022/07/15 06:50:22;;;;;;;2.15;2.05;;;;;;;19.77;79.85;100311.47;5363991;33;33856;-83
2022/07/15 06:53:25;;;;;;;2.62;2.42;;;;;;;19.75;80.72;100316.38;5358084;33;34619;-83
2022/07/15 06:56:29;;;;;;;2.45;2.25;;;;;;;19.81;80.00;100318.13;5346454;33;32537;-85
2022/07/15 06:59:33;;;;;;;3.40;2.10;;;;;;;19.85;79.62;100305.66;5361216;33;35726;-85
2022/07/15 07:02:39;;;;;;;2.20;2.00;;;;;;;19.86;79.80;100310.06;5359449;33;33945;-84
2022/07/15 07:06:09;;;;;;;3.97;2.15;;;;;;;19.97;79.01;100313.81;5359544;33;34710;-84
2022/07/15 07:09:12;;;;;;;3.17;2.33;;;;;;;20.00;78.78;100342.56;5359027;33;34000;-83
2022/07/15 07:12:15;;;;;;;2.65;2.45;;;;;;;19.99;79.31;100369.06;5360192;33;33917;-84
2022/07/15 07:15:20;;;;;;;2.35;2.17;;;;;;;20.00;79.95;100392.56;5359510;33;34051;-84
2022/07/15 07:18:24;;;;;;;6.25;2.58;;;;;;;19.99;79.65;100387.38;5358572;33;34385;-84
2022/07/15 07:21:27;;;;;;;3.58;2.25;;;;;;;20.00;79.93;100410.88;5365497;33;34006;-84
2022/07/15 07:24:34;;;;;;;2.70;2.33;;;;;;;20.01;79.62;100410.66;5368690;33;34689;-84
2022/07/15 07:27:37;;;;;;;2.45;2.25;;;;;;;20.11;78.68;100410.88;5365703;33;34015;-84
2022/07/15 07:30:40;;;;;;;2.95;2.20;;;;;;;20.20;77.55;100419.53;5362566;33;34088;-84
2022/07/15 07:33:43;;;;;;;2.65;2.28;;;;;;;20.16;76.76;100408.25;5365301;33;35021;-84
2022/07/15 07:36:49;;;;;;;2.45;2.28;;;;;;;20.20;76.66;100397.66;5371816;33;35385;-85
2022/07/15 07:39:51;;;;;;;2.00;1.90;;;;;;;20.26;76.17;100387.66;5364899;33;33913;-84
2022/07/15 07:42:56;;;;;;;2.50;2.30;;;;;;;20.30;75.81;100386.97;5361948;33;33675;-85
2022/07/15 07:45:59;;;;;;;2.70;2.50;;;;;;;20.32;75.98;100394.91;5362480;33;33747;-85
2022/07/15 07:49:02;;;;;;;2.42;2.22;;;;;;;20.34;76.04;100396.31;5349078;33;32806;-85
2022/07/15 07:52:25;;;;;;;2.60;2.40;;;;;;;20.42;75.61;100410.69;5365763;33;34074;-84
2022/07/15 07:55:30;;;;;;;2.50;2.30;;;;;;;20.43;75.48;100410.44;5367343;33;33711;-84
2022/07/15 07:58:33;;;;;;;3.35;2.35;;;;;;;20.43;75.57;100412.34;5352575;33;32826;-84
2022/07/15 08:01:36;;;;;;;2.40;2.20;;;;;;;20.50;75.62;100421.25;5370811;33;34877;-84
2022/07/15 08:04:40;;;;;;;4.37;2.80;;;;;;;20.52;75.15;100422.69;5366898;33;32550;-85
2022/07/15 08:07:43;;;;;;;2.75;2.55;;;;;;;20.44;75.47;100403.91;5372871;33;34110;-84
2022/07/15 08:10:49;;;;;;;2.70;2.35;;;;;;;20.42;75.79;100425.22;5372989;33;34638;-86
2022/07/15 08:13:52;;;;;;;3.30;2.35;;;;;;;20.46;76.01;100399.03;5364784;33;34414;-88
2022/07/15 08:16:55;;;;;;;4.05;2.50;;;;;;;20.58;75.35;100412.69;5365873;33;33681;-88
2022/07/15 08:19:58;;;;;;;2.85;2.65;;;;;;;20.59;75.21;100434.34;5371102;33;34637;-86
2022/07/15 08:23:03;;;;;;;2.75;2.53;;;;;;;20.63;75.51;100434.69;5366770;33;33894;-85
2022/07/15 08:26:06;;;;;;;3.60;2.72;;;;;;;20.69;75.91;100452.88;5351633;33;32602;-85
2022/07/15 08:29:10;;;;;;;3.08;2.75;;;;;;;20.72;75.08;100433.22;5362718;33;33902;-85
2022/07/15 08:32:14;;;;;;;3.05;2.50;;;;;;;20.84;74.71;100438.66;5372388;33;33757;-84
2022/07/15 08:35:18;;;;;;;3.50;2.83;;;;;;;20.89;74.66;100433.28;5369515;33;33553;-85
2022/07/15 08:38:22;;;;;;;3.45;2.70;;;;;;;20.95;74.76;100426.00;5351919;33;33384;-84
2022/07/15 08:41:25;;;;;;;2.97;2.70;;;;;;;21.04;74.84;100439.03;5367863;33;34631;-84
2022/07/15 08:44:28;;;;;;;2.55;2.35;;;;;;;21.05;74.03;100445.34;5365135;33;34237;-84
2022/07/15 08:47:32;;;;;;;3.72;2.70;;;;;;;21.10;74.36;100441.88;5360300;33;33673;-85
2022/07/15 08:50:56;;;;;;;3.00;2.70;;;;;;;21.16;74.96;100443.63;5361847;33;35690;-84
2022/07/15 08:53:59;;;;;;;3.97;2.95;;;;;;;21.17;73.76;100450.75;5362042;33;33135;-84
2022/07/15 08:57:02;;;;;;;3.45;3.08;;;;;;;21.05;75.42;100442.59;5377624;33;34551;-84
2022/07/15 09:00:10;;;;;;;6.37;3.00;;;;;;;20.98;77.54;100447.41;5352560;33;33627;-84
2022/07/15 09:03:13;;;;;;;3.40;3.10;;;;;;;20.91;77.68;100469.44;5375266;33;33755;-84
2022/07/15 09:06:46;;;;;;;3.20;2.90;;;;;;;21.01;77.12;100477.03;5378549;33;33859;-84
2022/07/15 09:09:51;;;;;;;3.55;3.22;;;;;;;21.17;77.40;100470.75;5375469;33;34752;-84
2022/07/15 09:12:54;;;;;;;3.95;2.92;;;;;;;21.16;77.44;100455.41;5378875;33;34754;-84
2022/07/15 09:16:10;;;;;;;3.40;3.10;;;;;;;21.15;78.05;100434.59;5378436;33;34407;-85
2022/07/15 09:19:14;;;;;;;3.33;3.08;;;;;;;21.20;76.82;100447.53;5378439;33;33757;-84
2022/07/15 09:22:19;;;;;;;4.53;2.95;;;;;;;21.29;75.44;100492.59;5376475;33;33674;-84
2022/07/15 09:25:22;;;;;;;6.20;3.05;;;;;;;21.28;76.07;100485.47;5378136;33;34618;-84
2022/07/15 09:28:40;;;;;;;3.00;2.72;;;;;;;21.24;76.21;100468.69;5376251;33;34669;-84
2022/07/15 09:38:41;;;;;;;4.45;2.97;;;;;;;21.45;74.62;100474.56;5371974;33;34338;-84
2022/07/15 09:41:44;;;;;;;5.65;2.90;;;;;;;21.60;72.22;100465.78;5373561;33;33912;-84
2022/07/15 09:44:47;;;;;;;8.88;3.30;;;;;;;21.82;70.52;100463.97;5376351;33;34543;-83
2022/07/15 09:48:13;;;;;;;3.08;2.80;;;;;;;21.89;71.39;100464.59;5360921;33;34109;-84
2022/07/15 09:51:16;;;;;;;3.00;2.80;;;;;;;22.25;67.17;100467.91;5361993;33;33715;-84
2022/07/15 09:54:19;;;;;;;5.00;2.90;;;;;;;22.51;66.11;100460.00;5360592;33;34472;-83
2022/07/15 09:57:22;;;;;;;2.90;2.70;;;;;;;22.79;64.73;100457.06;5371301;33;33730;-84
2022/07/15 10:00:26;;;;;;;2.95;2.65;;;;;;;23.14;62.17;100465.97;5368458;33;34732;-84
2022/07/15 10:03:32;;;;;;;5.25;2.85;;;;;;;23.23;60.76;100473.50;5349423;33;32620;-84
2022/07/15 10:06:38;;;;;;;3.40;2.62;;;;;;;23.26;60.39;100483.97;5347577;33;33849;-84
2022/07/15 10:09:42;;;;;;;5.00;2.70;;;;;;;23.43;60.60;100478.38;5367742;33;34012;-83
2022/07/15 10:13:05;;;;;;;3.22;2.50;;;;;;;23.46;59.41;100469.59;5362530;33;33615;-83
2022/07/15 10:16:21;;;;;;;4.35;2.62;;;;;;;23.37;60.20;100442.84;5371757;33;33938;-83
2022/07/15 10:19:59;;;;;;;2.60;2.40;;;;;;;23.47;59.85;100393.47;5376090;33;34325;-87
2022/07/15 10:23:28;;;;;;;3.12;2.22;;;;;;;23.50;50.24;100363.53;5367451;33;33763;-84
2022/07/15 10:27:01;;;;;;;4.80;2.12;;;;;;;23.67;48.80;100393.63;5355468;33;32503;-83
2022/07/15 10:30:06;;;;;;;3.47;2.37;;;;;;;23.75;47.79;100404.16;5377211;33;33652;-83
2022/07/15 10:33:13;;;;;;;2.37;1.87;;;;;;;23.82;46.14;100411.34;5374792;33;33736;-83
2022/07/15 10:36:16;;;;;;;9.65;2.70;;;;;;;23.84;43.16;100399.00;5372562;33;34584;-83
2022/07/15 10:39:21;;;;;;;3.65;2.00;;;;;;;24.08;42.57;100382.91;5372331;33;34498;-82
2022/07/15 10:42:25;;;;;;;2.83;1.50;;;;;;;24.16;40.73;100385.16;5354053;33;33723;-84
2022/07/15 10:45:28;;;;;;;3.95;1.73;;;;;;;24.54;39.17;100383.13;5367277;33;34016;-83
2022/07/15 10:48:31;;;;;;;3.40;1.90;;;;;;;24.88;39.17;100385.41;5361666;33;34202;-84
2022/07/15 10:51:34;;;;;;;2.78;1.70;;;;;;;25.44;38.00;100396.47;5371998;33;33591;-83
2022/07/15 10:54:40;;;;;;;2.42;1.70;;;;;;;25.83;36.96;100389.56;5348788;33;33374;-83
2022/07/15 10:57:42;;;;;;;1.58;1.48;;;;;;;26.18;35.93;100389.50;5361600;33;35362;-83
2022/07/15 11:00:46;;;;;;;2.08;1.48;;;;;;;27.09;34.50;100387.34;5357660;33;34327;-83
2022/07/15 11:04:15;;;;;;;1.95;1.37;;;;;;;27.38;31.71;100389.37;5356233;33;32042;-83
2022/07/15 11:07:23;;;;;;;1.92;1.33;;;;;;;27.15;31.95;100379.87;5370605;33;34181;-87
2022/07/15 11:10:25;;;;;;;2.58;1.67;;;;;;;26.86;31.78;100386.13;5367489;33;33929;-83
2022/07/15 11:13:33;;;;;;;1.87;1.35;;;;;;;26.51;30.47;100391.88;5366220;33;34245;-82
2022/07/15 11:16:36;;;;;;;1.90;1.70;;;;;;;26.51;30.18;100386.34;5367451;33;35216;-82
2022/07/15 11:19:39;;;;;;;2.53;1.48;;;;;;;26.28;29.35;100383.09;5353731;33;32418;-82
2022/07/15 11:22:45;;;;;;;2.03;1.52;;;;;;;26.20;28.79;100387.25;5372971;33;33629;-84
2022/07/15 11:25:53;;;;;;;2.33;1.37;;;;;;;26.10;30.09;100390.06;5309224;33;32546;-87
2022/07/15 11:28:59;;;;;;;2.80;1.30;;;;;;;26.17;30.41;100387.00;5299599;33;33905;-87
2022/07/15 11:32:04;;;;;;;1.92;1.50;;;;;;;26.34;30.74;100373.69;5307059;33;33953;-87
2022/07/15 11:35:07;;;;;;;2.12;1.77;;;;;;;26.57;29.47;100376.94;5309208;33;33986;-84
2022/07/15 11:38:11;;;;;;;1.73;1.62;;;;;;;26.95;29.34;100388.28;5312927;33;34738;-83
2022/07/15 11:44:45;;;;;;;2.28;1.60;;;;;;;27.01;29.68;100387.97;5324659;33;34451;-84
2022/07/15 11:47:53;;;;;;;2.30;1.95;;;;;;;26.85;29.33;100375.34;5309976;33;32946;-84
2022/07/15 11:50:57;;;;;;;1.42;1.33;;;;;;;26.78;29.12;100385.91;5295433;33;32047;-84
2022/07/15 11:53:59;;;;;;;2.45;1.60;;;;;;;26.98;29.19;100384.97;5312632;33;34243;-84
2022/07/15 11:57:06;;;;;;;1.70;1.50;;;;;;;27.17;30.22;100388.69;5310442;33;33472;-83
2022/07/15 12:00:09;;;;;;;1.62;1.40;;;;;;;27.27;28.32;100380.34;5310930;33;33325;-83
2022/07/15 12:03:13;;;;;;;2.22;1.67;;;;;;;26.96;27.69;100379.69;5310075;33;32875;-83
2022/07/15 12:06:20;;;;;;;1.70;1.50;;;;;;;26.59;26.87;100381.06;5322352;33;34849;-84
2022/07/15 12:09:25;;;;;;;1.67;1.30;;;;;;;26.36;27.11;100395.50;5310720;33;35802;-82
2022/07/15 12:12:28;;;;;;;1.65;1.40;;;;;;;26.17;26.66;100389.75;5324476;33;34051;-82
2022/07/15 12:15:33;;;;;;;5.20;1.95;;;;;;;25.85;27.71;100396.47;5324708;33;33753;-83
2022/07/15 12:18:36;;;;;;;1.40;1.30;;;;;;;25.96;27.71;100400.03;5325284;33;34111;-83
2022/07/15 12:21:41;;;;;;;2.53;1.50;;;;;;;26.13;27.63;100399.72;5323606;33;33979;-84
2022/07/15 12:24:47;;;;;;;3.15;1.70;;;;;;;26.51;26.95;100405.69;5326063;33;34068;-82
2022/07/15 12:27:50;;;;;;;2.00;1.65;;;;;;;27.14;26.29;100401.16;5344827;33;34508;-83
2022/07/15 12:30:52;;;;;;;1.40;1.25;;;;;;;28.95;24.18;100401.69;5342110;33;33712;-83
2022/07/15 12:33:55;;;;;;;3.28;1.45;;;;;;;32.08;20.52;100399.56;5327944;33;32969;-83
2022/07/15 12:36:59;;;;;;;2.83;1.20;;;;;;;34.71;18.45;100377.38;5329030;33;32148;-82
2022/07/15 12:40:04;;;;;;;3.05;1.17;;;;;;;36.96;15.77;100371.09;5342186;33;33749;-83
2022/07/15 12:43:08;;;;;;;8.20;1.62;;;;;;;38.16;14.45;100364.69;5328487;33;33777;-83
2022/07/15 12:46:11;;;;;;;2.25;0.90;;;;;;;38.54;14.86;100362.00;5342438;33;34625;-83
2022/07/15 12:49:52;;;;;;;3.53;1.10;;;;;;;39.23;13.99;100358.63;5333331;33;34834;-85
2022/07/15 12:52:55;;;;;;;1.80;1.10;;;;;;;38.56;14.43;100367.25;5324797;33;34193;-86
2022/07/15 12:56:00;;;;;;;2.00;1.23;;;;;;;38.78;14.13;100358.06;5311064;33;34687;-86
2022/07/15 12:59:02;;;;;;;3.00;0.90;;;;;;;39.22;14.06;100351.34;5338274;33;34657;-86
2022/07/15 13:02:06;;;;;;;1.90;1.02;;;;;;;39.86;13.27;100355.37;5342099;33;34818;-86
2022/07/15 13:05:09;;;;;;;4.90;1.20;;;;;;;39.51;13.25;100364.00;5334919;33;33652;-86
2022/07/15 13:08:24;;;;;;;2.67;1.35;;;;;;;39.51;13.40;100354.72;5323541;33;201042;-86
2022/07/15 13:11:27;;;;;;;3.20;0.90;;;;;;;39.85;13.47;100350.94;5329375;33;34403;-86
2022/07/15 13:14:30;;;;;;;4.20;1.10;;;;;;;39.97;12.72;100349.91;5330808;33;34666;-86
2022/07/15 13:17:34;;;;;;;1.20;1.10;;;;;;;41.12;11.78;100351.53;5329813;33;33235;-86
2022/07/15 13:20:38;;;;;;;5.93;1.58;;;;;;;40.52;11.95;100360.84;5325973;33;33869;-86
2022/07/15 13:23:41;;;;;;;1.05;0.95;;;;;;;37.84;13.69;100362.69;5327747;33;34574;-86
2022/07/15 13:26:44;;;;;;;1.83;0.82;;;;;;;37.54;13.38;100353.09;5328157;33;33786;-86
2022/07/15 13:29:47;;;;;;;5.18;1.12;;;;;;;39.48;12.08;100352.66;5341941;33;33986;-86
2022/07/15 13:32:50;;;;;;;1.30;1.00;;;;;;;39.59;12.13;100359.31;5334983;33;34672;-86
2022/07/15 13:35:55;;;;;;;1.37;1.02;;;;;;;37.47;13.51;100366.88;5364931;27;34035;-86
2022/07/15 13:38:58;;;;;;;1.98;1.23;;;;;;;36.01;14.65;100369.66;5381105;33;34692;-86
2022/07/15 13:42:01;;;;;;;4.25;1.23;;;;;;;34.78;15.78;100374.03;5365514;33;32535;-86
2022/07/15 13:45:06;;;;;;;1.30;0.95;;;;;;;37.56;14.05;100368.41;5364510;33;32562;-86
2022/07/15 13:48:09;;;;;;;3.58;1.30;;;;;;;38.40;13.07;100372.91;5374543;33;33922;-86
2022/07/15 13:51:24;;;;;;;1.23;1.12;;;;;;;37.88;13.10;100366.41;5369798;33;34423;-87
2022/07/15 13:54:27;;;;;;;2.12;1.12;;;;;;;39.33;12.44;100374.94;5359893;33;33591;-86
2022/07/15 13:57:30;;;;;;;1.37;0.88;;;;;;;39.00;12.38;100373.44;5379697;33;33451;-87
2022/07/15 14:00:35;;;;;;;3.85;1.15;;;;;;;38.70;12.20;100378.84;5378086;33;33867;-86
2022/07/15 14:03:39;;;;;;;3.60;1.10;;;;;;;39.47;11.88;100385.66;5363656;33;32595;-84
2022/07/15 14:06:47;;;;;;;2.35;1.17;;;;;;;40.00;11.97;100377.34;5378416;33;35397;-84
2022/07/15 14:09:50;;;;;;;1.00;0.90;;;;;;;39.28;11.89;100371.56;5377913;33;33996;-84
2022/07/15 14:12:54;;;;;;;1.67;0.70;;;;;;;37.84;13.26;100382.34;5377795;33;34120;-83
2022/07/15 14:15:57;;;;;;;0.82;0.82;;;;;;;36.37;14.26;100390.50;5363891;33;33266;-84
2022/07/15 14:19:00;;;;;;;3.70;0.75;;;;;;;34.72;15.11;100393.00;5375352;33;33765;-84
2022/07/15 14:22:03;;;;;;;1.12;0.70;;;;;;;33.48;16.56;100386.63;5358639;33;32481;-85
2022/07/15 14:25:08;;;;;;;1.73;1.02;;;;;;;32.29;17.69;100392.28;5364102;33;32203;-84
2022/07/15 14:28:12;;;;;;;0.75;0.75;;;;;;;32.10;18.18;100388.94;5379898;33;34633;-84
2022/07/15 14:31:16;;;;;;;1.35;1.25;;;;;;;31.85;18.50;100384.84;5365841;33;32272;-84
2022/07/15 14:34:20;;;;;;;0.70;0.70;;;;;;;31.40;18.56;100388.53;5367705;33;33386;-84
2022/07/15 14:37:22;;;;;;;0.80;0.80;;;;;;;30.80;19.00;100391.66;5386514;33;34475;-84
2022/07/15 14:40:37;;;;;;;1.40;0.85;;;;;;;30.46;18.24;100386.53;5370998;27;33749;-83
2022/07/15 14:43:40;;;;;;;1.27;1.17;;;;;;;30.53;18.69;100386.13;5359962;33;34240;-84
2022/07/15 14:46:43;;;;;;;1.15;0.90;;;;;;;30.43;19.10;100393.53;5348126;33;32353;-84
2022/07/15 14:49:46;;;;;;;5.93;1.40;;;;;;;30.24;19.46;100376.16;5360630;33;34093;-84
2022/07/15 14:52:50;;;;;;;2.80;1.20;;;;;;;30.34;19.18;100383.47;5353549;33;32581;-85
2022/07/15 14:55:52;;;;;;;1.37;1.27;;;;;;;29.89;19.99;100386.00;5365204;33;34035;-84
2022/07/15 14:58:56;;;;;;;2.75;1.10;;;;;;;29.34;20.41;100390.28;5348503;33;33415;-84
2022/07/15 15:01:59;;;;;;;1.30;0.80;;;;;;;29.22;20.18;100386.31;5347650;33;33104;-85
2022/07/15 15:05:03;;;;;;;0.95;0.90;;;;;;;29.12;20.16;100393.69;5348048;33;32834;-85
2022/07/15 15:08:07;;;;;;;1.67;1.30;;;;;;;29.08;19.90;100395.44;5361590;33;34114;-89
2022/07/15 15:11:10;;;;;;;1.70;1.27;;;;;;;28.84;20.07;100386.31;5348204;33;32088;-89
2022/07/15 15:14:30;;;;;;;1.67;1.02;;;;;;;28.88;19.92;100392.94;5361557;33;35770;-85
2022/07/15 15:17:33;;;;;;;1.55;1.27;;;;;;;28.92;20.09;100386.47;5362075;33;34530;-85
2022/07/15 15:20:42;;;;;;;1.20;1.10;;;;;;;28.83;20.53;100393.00;5361936;33;33664;-86
2022/07/15 15:28:16;;;;;;;1.75;1.15;;;;;;;28.49;20.62;100391.28;5370991;27;34522;-86
2022/07/15 15:31:19;;;;;;;1.60;1.20;;;;;;;28.03;21.62;100391.81;5351714;33;33101;-86
2022/07/15 15:34:23;;;;;;;2.30;1.60;;;;;;;27.84;21.80;100396.44;5367604;33;34034;-85
2022/07/15 15:37:26;;;;;;;2.65;1.25;;;;;;;27.68;22.16;100393.78;5363955;33;34262;-85
2022/07/15 15:40:28;;;;;;;1.30;1.20;;;;;;;27.65;22.37;100393.56;5349559;33;32202;-85
2022/07/15 15:43:32;;;;;;;1.40;1.30;;;;;;;27.52;23.00;100390.31;5346859;33;32944;-85
2022/07/15 15:46:34;;;;;;;1.65;1.37;;;;;;;27.31;23.57;100388.88;5346643;33;33020;-85
